Ottawa Gatineau Airport
CYND : rendu visible

Aérodrome :











RETROUVEZ-NOUS SUR...

 
LOGIN :

S'inscrire | Disclaimer

   EN    FR    IT 

 









Légende :    VFR   VFR Marginal   IFR   IFR Intensif   IFR Très Intensif
Visi : 
Plafond : 
>= 8 km
>= 3000ft
5 à 8 km
1000 à 3000 ft
1500m à 5 km
500 à 1000 ft
800 à 1500m
200 à 500 ft
< 800m
< 200 ft
Symboles :   Orages  Brouillard  Fortes neiges  Fortes précipitations  Vent > 20 kt







- Altitude de l'aérodrome : 211 ft
- Code IATA : YND


CYND - Ottawa Gatineau

DERNIER METAR :
  • 241900Z 29013KT 15SM BKN025 08/03 A2981 RMK SC7 SLP097

METARs EXPIRÉS :
  • 241805Z 28013G20KT 15SM BKN019 07/04 A2980 RMK SC7 SLP094
  • 241754Z 29013G21KT 12SM -RA BKN019 07/04 A2980 RMK SC7 SLP093
  • 241700Z 29011KT 15SM OVC028 08/03 A2978 RMK SC8 SLP088

TAF TAF CYND
Valide du 24 à 18h jusqu'au 25 à 01h UTC


241738Z 2418/2501 30012G22KT P6SM -SHRA OVC020
TEMPO 2418/2501 P6SM NSW OVC025
BECMG 2420/2422 32010KT RMK NXT FCST WILL BE ISSUED AT 251245Z
FIR CZUL / Amérique du Nord



MET'MAP, la Météo Aéronautique d'un coup d'oeil ! - Copyright ORBIFLY Décembre 2007 - Disclaimer

ORBIFLY MET'MAP TEAM :

Programmation & Développement : Alexandra Zaïnal
Conception & Développement : Baudouin d'Aumeries
Co-Programmation & Développement : Marc-Olivier Méhu
Soutien technique & logistique : Manuel Goepfert

Contact : metmap@orbifly.com




SOURCES & CREDITS :

   NOAA       Earth
Advisory